A S Fatima — D5HR9 — position and weather

sailwx.info

Track history (hours):
 
Tides and Currents Weather Stations Pressure Air Temp Water Temp Dewpoint Dewpoint Depression Visibility Wind Speed Wind Dir Waves Ship Positions

A S Fatima

Last reported at 2017-Sep-21 21:03 UTC. Time now 2017-Sep-24 08:43 UTC.
Position N 43°01' E 010°24'.

Length 166 m; draft 7 m.

Type: Cargo ship. MMSI: 636092616.

Date/timePositionNaut miles runAvg speedWind from/ knotsBaromVisibWave heightAir tempDewpointWater temp
2017-Sep-21 21:03N 43°01' E 010°24'112.8
2017-Sep-21 20:56N 43°02' E 010°23'512.6
2017-Sep-21 20:30N 43°08' E 010°22'612.5
2017-Sep-21 20:00N 43°14' E 010°19'612.6
2017-Sep-21 19:30N 43°20' E 010°16'612.3
2017-Sep-21 19:00N 43°25' E 010°13'611.2
2017-Sep-21 18:30N 43°31' E 010°13'4 8.5
2017-Sep-21 18:00N 43°34' E 010°18'1 1.4
2017-Sep-21 17:29N 43°34' E 010°18'0 0.0
2017-Sep-21 16:59N 43°34' E 010°18'0 0.0
2017-Sep-21 16:29N 43°34' E 010°18'0 0.0
2017-Sep-21 15:50N 43°34' E 010°18'0 0.0
2017-Sep-21 15:26N 43°34' E 010°18'0 0.0
2017-Sep-21 14:56N 43°34' E 010°18'0 0.0
2017-Sep-21 14:29N 43°34' E 010°18'0 0.0
2017-Sep-21 13:56N 43°34' E 010°18'0 0.0
2017-Sep-21 13:26N 43°34' E 010°18'0 0.0
2017-Sep-21 12:59N 43°34' E 010°18'0 0.0
2017-Sep-21 12:17N 43°34' E 010°18'0 0.0
2017-Sep-21 11:56N 43°34' E 010°18'0 0.0
2017-Sep-21 11:26N 43°34' E 010°18'0 0.0
2017-Sep-21 10:59N 43°34' E 010°18'0 0.0
2017-Sep-21 10:29N 43°34' E 010°18'0 0.0
2017-Sep-21 09:59N 43°34' E 010°18'0 0.0
2017-Sep-21 09:29N 43°34' E 010°18'0 0.0
2017-Sep-21 08:59N 43°34' E 010°18'0 0.0
2017-Sep-21 08:29N 43°34' E 010°18'0 0.0
2017-Sep-21 07:56N 43°34' E 010°18'0 0.0
2017-Sep-21 07:29N 43°34' E 010°18'0 0.0
2017-Sep-21 06:56N 43°34' E 010°18'0 0.0
2017-Sep-21 06:29N 43°34' E 010°18'0 0.0
2017-Sep-21 05:59N 43°34' E 010°18'0 0.2
2017-Sep-21 05:30N 43°34' E 010°18'2 3.6
2017-Sep-21 05:01N 43°33' E 010°17'3 6.7
2017-Sep-21 04:30N 43°30' E 010°14'5 9.7
2017-Sep-21 04:00N 43°26' E 010°11'611.4
2017-Sep-21 03:30N 43°21' E 010°06'4 7.9
2017-Sep-21 03:00N 43°24' E 010°10'4 9.0
2017-Sep-21 02:30N 43°22' E 010°16'713.7
2017-Sep-21 02:01N 43°15' E 010°18'713.9
2017-Sep-21 01:30N 43°08' E 010°21'714.0
2017-Sep-21 00:59N 43°01' E 010°24'1213.3
2017-Sep-21 00:06N 42°51' E 010°31'30 0.7
2017-Sep-19 06:29N 43°10' E 009°59'612.4
2017-Sep-19 06:00N 43°14' E 009°53'611.8
2017-Sep-19 05:30N 43°18' E 009°47'611.7
2017-Sep-19 05:00N 43°22' E 009°41'611.8
2017-Sep-19 04:30N 43°26' E 009°35'611.8
2017-Sep-19 04:00N 43°30' E 009°30'611.8
2017-Sep-19 03:30N 43°35' E 009°24'611.7
2017-Sep-19 03:00N 43°39' E 009°19'611.5
2017-Sep-19 02:30N 43°43' E 009°13'611.3
2017-Sep-19 02:00N 43°47' E 009°07'611.1
2017-Sep-19 01:30N 43°51' E 009°02'611.2
2017-Sep-19 01:00N 43°55' E 008°57'611.2
2017-Sep-19 00:30N 43°59' E 008°51'611.2
2017-Sep-19 00:00N 44°03' E 008°46'611.1
2017-Sep-18 23:30N 44°07' E 008°41'611.5
2017-Sep-18 23:00N 44°11' E 008°35'611.8
2017-Sep-18 22:30N 44°15' E 008°29'1 2.5
2017-Sep-18 21:59N 44°16' E 008°27'0 0.0
2017-Sep-18 21:29N 44°16' E 008°27'0 0.0
2017-Sep-18 20:59N 44°16' E 008°27'0 0.0
2017-Sep-18 20:29N 44°16' E 008°27'0 0.0
2017-Sep-18 19:59N 44°16' E 008°27'0 0.0
2017-Sep-18 19:29N 44°16' E 008°27'0 0.0
2017-Sep-18 18:59N 44°16' E 008°27'0 0.0
2017-Sep-18 18:29N 44°16' E 008°27'0 0.0
2017-Sep-18 17:59N 44°16' E 008°27'0 0.0
2017-Sep-18 17:29N 44°16' E 008°27'0 0.0
2017-Sep-18 16:59N 44°16' E 008°27'0 0.0
2017-Sep-18 16:29N 44°16' E 008°27'0 0.0
2017-Sep-18 15:59N 44°16' E 008°27'0 0.0
2017-Sep-18 15:29N 44°16' E 008°27'0 0.0
2017-Sep-18 14:59N 44°16' E 008°27'0 0.0
2017-Sep-18 14:29N 44°16' E 008°27'0 0.0
2017-Sep-18 13:59N 44°16' E 008°27'0 0.0
2017-Sep-18 13:29N 44°16' E 008°27'0 0.0
2017-Sep-18 12:59N 44°16' E 008°27'0 0.0
2017-Sep-18 12:29N 44°16' E 008°27'0 0.0
2017-Sep-18 11:59N 44°16' E 008°27'0 0.0
2017-Sep-18 11:29N 44°16' E 008°27'0 0.0
2017-Sep-18 10:59N 44°16' E 008°27'0 0.0
2017-Sep-18 10:30N 44°16' E 008°27'0 0.0
2017-Sep-18 10:00N 44°16' E 008°27'0 0.0
2017-Sep-18 09:30N 44°16' E 008°27'0 0.0
2017-Sep-18 09:00N 44°16' E 008°27'0 0.0
2017-Sep-18 08:30N 44°16' E 008°27'0 0.0
2017-Sep-18 08:00N 44°16' E 008°27'0 0.0
2017-Sep-18 07:30N 44°16' E 008°27'0 0.0
2017-Sep-18 07:00N 44°16' E 008°27'0 0.0
2017-Sep-18 06:30N 44°16' E 008°27'0 0.0
2017-Sep-18 06:00N 44°16' E 008°27'0 0.0
2017-Sep-18 05:30N 44°16' E 008°27'0 0.0
2017-Sep-18 04:55N 44°16' E 008°27'0 1.1
2017-Sep-18 04:30N 44°16' E 008°27'2 3.5
2017-Sep-18 04:00N 44°15' E 008°29'3 5.6
2017-Sep-18 03:31N 44°13' E 008°30'5 9.3
2017-Sep-18 03:01N 44°08' E 008°28'5 9.6
2017-Sep-18 02:30N 44°04' E 008°25'510.1
2017-Sep-18 02:01N 43°59' E 008°23'610.1
2017-Sep-18 01:28N 43°54' E 008°20'910.0
2017-Sep-18 00:31N 43°46' E 008°14'1 8.4
2017-Sep-18 00:25N 43°45' E 008°15'4 8.3
2017-Sep-17 23:57N 43°44' E 008°20'4 8.0
2017-Sep-17 23:31N 43°43' E 008°24'6 8.3
2017-Sep-17 22:50N 43°48' E 008°27'3 9.0
2017-Sep-17 22:30N 43°51' E 008°28'4 8.5
2017-Sep-17 21:59N 43°54' E 008°31'4 8.5
2017-Sep-17 21:29N 43°58' E 008°35'4 8.3
2017-Sep-17 21:01N 44°01' E 008°38'4 8.4
2017-Sep-17 20:30N 44°04' E 008°42'1 2.8
2017-Sep-17 20:00N 44°05' E 008°44'1 2.0
2017-Sep-17 19:30N 44°05' E 008°42'1 1.9
2017-Sep-17 19:01N 44°05' E 008°41'1 1.9
2017-Sep-17 18:30N 44°04' E 008°40'1 1.8
2017-Sep-17 18:00N 44°04' E 008°39'1 1.8
2017-Sep-17 17:31N 44°03' E 008°38'1 1.8
2017-Sep-17 17:01N 44°03' E 008°37'1 2.0
2017-Sep-17 16:31N 44°03' E 008°35'1 2.0
2017-Sep-17 16:00N 44°02' E 008°34'1 1.9
2017-Sep-17 15:31N 44°02' E 008°33'1 1.9
2017-Sep-17 15:01N 44°02' E 008°31'1 1.8
2017-Sep-17 14:31N 44°01' E 008°30'1 1.8
2017-Sep-17 14:01N 44°01' E 008°29'1 1.8
2017-Sep-17 13:31N 44°01' E 008°28'1 1.9
2017-Sep-17 13:01N 44°00' E 008°27'1 1.9
2017-Sep-17 12:31N 44°00' E 008°25'1 2.6
2017-Sep-17 12:01N 43°59' E 008°24'5611.5
2017-Sep-17 07:09N 43°19' E 007°30'516.3
2017-Sep-17 06:50N 43°16' E 007°25'514.7
2017-Sep-17 06:30N 43°12' E 007°20'611.4
2017-Sep-17 06:00N 43°08' E 007°14'611.5
2017-Sep-17 05:30N 43°05' E 007°08'21711.3
2017-Sep-16 10:21N 40°40' E 003°31'410.2
2017-Sep-16 09:58N 40°38' E 003°27'4 9.6
2017-Sep-16 09:30N 40°34' E 003°23'5 9.2
2017-Sep-16 09:00N 40°31' E 003°18'5 9.4
2017-Sep-16 08:30N 40°28' E 003°14'5 9.6
2017-Sep-16 08:00N 40°25' E 003°09'5 9.6
2017-Sep-16 07:30N 40°22' E 003°04'5 9.6
2017-Sep-16 07:00N 40°19' E 002°60'510.2
2017-Sep-16 06:30N 40°15' E 002°55'714.7
2017-Sep-16 06:00N 40°10' E 002°48'712.8
2017-Sep-16 05:30N 40°06' E 002°41'510.7
2017-Sep-16 05:00N 40°02' E 002°36'510.7
2017-Sep-16 04:30N 39°59' E 002°31'510.7
2017-Sep-16 04:00N 39°55' E 002°26'510.9
2017-Sep-16 03:30N 39°52' E 002°20'611.2
2017-Sep-16 03:00N 39°48' E 002°15'611.5
2017-Sep-16 02:30N 39°44' E 002°09'611.5
2017-Sep-16 01:59N 39°40' E 002°03'511.2
2017-Sep-16 01:30N 39°37' E 001°58'611.0
2017-Sep-16 01:00N 39°33' E 001°53'611.1
2017-Sep-16 00:30N 39°30' E 001°47'510.8
2017-Sep-16 00:00N 39°26' E 001°42'510.7
2017-Sep-15 23:30N 39°22' E 001°37'610.6
2017-Sep-15 22:56N 39°18' E 001°32'510.2
2017-Sep-15 22:27N 39°15' E 001°27'910.0
2017-Sep-15 21:32N 39°09' E 001°18'2 9.6
2017-Sep-15 21:20N 39°08' E 001°16'6 9.4
2017-Sep-15 20:44N 39°04' E 001°11'10810.0
2017-Sep-15 10:01N 37°43' W 000°20'211.5
2017-Sep-15 09:51N 37°41' W 000°22'411.5
2017-Sep-15 09:28N 37°38' W 000°25'611.6
2017-Sep-15 08:57N 37°34' W 000°30'711.5
2017-Sep-15 08:22N 37°29' W 000°36'411.5
2017-Sep-15 08:00N 37°26' W 000°40'611.5
2017-Sep-15 07:30N 37°22' W 000°46'611.8
2017-Sep-15 07:00N 37°19' W 000°51'816.0
2017-Sep-15 06:29N 37°13' W 000°59'21311.6
2017-Sep-14 12:03N 36°01' W 005°09'112.7
2017-Sep-14 11:56N 36°01' W 005°11'613.2
2017-Sep-14 11:30N 36°02' W 005°18'612.0
2017-Sep-14 11:00N 36°06' W 005°23'4 0.9
2017-Sep-14 06:44N 36°08' W 005°26'0 0.0
2017-Sep-14 06:25N 36°08' W 005°26'0 0.0
2017-Sep-14 06:00N 36°08' W 005°26'0 0.0
2017-Sep-14 04:29N 36°08' W 005°26'0 0.0
2017-Sep-14 03:50N 36°08' W 005°26'0 0.0
2017-Sep-14 03:30N 36°08' W 005°26'0 0.0
2017-Sep-14 02:59N 36°08' W 005°26'0 0.0
2017-Sep-14 02:29N 36°08' W 005°26'0 0.0
2017-Sep-14 01:59N 36°08' W 005°26'0 0.0
2017-Sep-14 01:28N 36°08' W 005°26'0 0.0
2017-Sep-14 00:58N 36°08' W 005°26'0 0.0
2017-Sep-14 00:28N 36°08' W 005°26'0 0.0
2017-Sep-13 23:58N 36°08' W 005°26'0 0.0
2017-Sep-13 23:28N 36°08' W 005°26'0 0.0
2017-Sep-13 22:49N 36°08' W 005°26'0 0.0
2017-Sep-13 22:30N 36°08' W 005°26'0 0.0
2017-Sep-13 22:00N 36°08' W 005°26'0 0.0
2017-Sep-13 21:30N 36°08' W 005°26'0 0.0
2017-Sep-13 21:00N 36°08' W 005°26'0 0.0
2017-Sep-13 20:29N 36°08' W 005°26'0 0.0
2017-Sep-13 19:48N 36°08' W 005°26'0 0.0
2017-Sep-13 19:30N 36°08' W 005°26'0 0.1
2017-Sep-13 18:59N 36°08' W 005°26'0 0.1
2017-Sep-13 18:28N 36°08' W 005°26'0 0.0
2017-Sep-13 17:58N 36°08' W 005°26'0 0.2
2017-Sep-13 17:26N 36°08' W 005°26'2 3.4
2017-Sep-13 16:44N 36°07' W 005°23'0 0.6
2017-Sep-13 16:30N 36°07' W 005°23'4 7.4
2017-Sep-13 15:59N 36°04' W 005°21'511.0
2017-Sep-13 15:30N 36°05' W 005°15'2 0.4
2017-Sep-13 10:38N 36°06' W 005°12'212.7
2017-Sep-13 10:30N 36°05' W 005°14'612.2
2017-Sep-13 10:00N 36°04' W 005°21'1 0.6
2017-Sep-13 08:54N 36°04' W 005°20'4 9.6
2017-Sep-13 08:30N 36°04' W 005°15'3 2.3
2017-Sep-13 07:03N 36°07' W 005°13'212.9
2017-Sep-13 06:56N 36°06' W 005°14'3 6.9
2017-Sep-13 06:30N 36°05' W 005°11'24910.9
2017-Sep-12 07:38N 36°51' W 000°07'111.0
2017-Sep-12 07:30N 36°52' W 000°06'611.2
2017-Sep-12 07:00N 36°53' E 000°01'815.4
2017-Sep-12 06:30N 36°55' E 000°10'815.5
2017-Sep-12 06:00N 36°57' E 000°20'611.4
2017-Sep-12 05:31N 36°58' E 000°27'611.0
2017-Sep-12 05:00N 36°60' E 000°33'511.0
2017-Sep-12 04:30N 37°01' E 000°40'611.2
2017-Sep-12 04:00N 37°03' E 000°47'611.1
2017-Sep-12 03:30N 37°04' E 000°54'611.4
2017-Sep-12 03:00N 37°05' E 001°00'611.8
2017-Sep-12 02:30N 37°07' E 001°07'611.7
2017-Sep-12 02:01N 37°09' E 001°14'611.5
2017-Sep-12 01:30N 37°10' E 001°22'611.5
2017-Sep-12 01:01N 37°12' E 001°28'611.5
2017-Sep-12 00:30N 37°13' E 001°36'611.4
2017-Sep-12 00:00N 37°14' E 001°42'611.3
2017-Sep-11 23:30N 37°16' E 001°49'611.1
2017-Sep-11 23:00N 37°17' E 001°56'511.0
2017-Sep-11 22:30N 37°18' E 002°03'510.9
2017-Sep-11 22:01N 37°20' E 002°10'611.0
2017-Sep-11 21:30N 37°21' E 002°16'  
Track history (hours):
 
Tides and Currents Weather Stations Pressure Air Temp Water Temp Dewpoint Dewpoint Depression Visibility Wind Speed Wind Dir Waves Ship Positions

A S Fatima

Last reported at 2017-Sep-21 21:03 UTC. Time now 2017-Sep-24 08:43 UTC.
Position N 43°01' E 010°24'.

Length 166 m; draft 7 m.

Type: Cargo ship. MMSI: 636092616.

Date/timePositionNaut miles runAvg speedWind from/ knotsBaromVisibWave heightAir tempDewpointWater temp
2017-Sep-21 21:03N 43°01' E 010°24'112.8
2017-Sep-21 20:56N 43°02' E 010°23'512.6
2017-Sep-21 20:30N 43°08' E 010°22'612.5
2017-Sep-21 20:00N 43°14' E 010°19'612.6
2017-Sep-21 19:30N 43°20' E 010°16'612.3
2017-Sep-21 19:00N 43°25' E 010°13'611.2
2017-Sep-21 18:30N 43°31' E 010°13'4 8.5
2017-Sep-21 18:00N 43°34' E 010°18'1 1.4
2017-Sep-21 17:29N 43°34' E 010°18'0 0.0
2017-Sep-21 16:59N 43°34' E 010°18'0 0.0
2017-Sep-21 16:29N 43°34' E 010°18'0 0.0
2017-Sep-21 15:50N 43°34' E 010°18'0 0.0
2017-Sep-21 15:26N 43°34' E 010°18'0 0.0
2017-Sep-21 14:56N 43°34' E 010°18'0 0.0
2017-Sep-21 14:29N 43°34' E 010°18'0 0.0
2017-Sep-21 13:56N 43°34' E 010°18'0 0.0
2017-Sep-21 13:26N 43°34' E 010°18'0 0.0
2017-Sep-21 12:59N 43°34' E 010°18'0 0.0
2017-Sep-21 12:17N 43°34' E 010°18'0 0.0
2017-Sep-21 11:56N 43°34' E 010°18'0 0.0
2017-Sep-21 11:26N 43°34' E 010°18'0 0.0
2017-Sep-21 10:59N 43°34' E 010°18'0 0.0
2017-Sep-21 10:29N 43°34' E 010°18'0 0.0
2017-Sep-21 09:59N 43°34' E 010°18'0 0.0
2017-Sep-21 09:29N 43°34' E 010°18'0 0.0
2017-Sep-21 08:59N 43°34' E 010°18'0 0.0
2017-Sep-21 08:29N 43°34' E 010°18'0 0.0
2017-Sep-21 07:56N 43°34' E 010°18'0 0.0
2017-Sep-21 07:29N 43°34' E 010°18'0 0.0
2017-Sep-21 06:56N 43°34' E 010°18'0 0.0
2017-Sep-21 06:29N 43°34' E 010°18'0 0.0
2017-Sep-21 05:59N 43°34' E 010°18'0 0.2
2017-Sep-21 05:30N 43°34' E 010°18'2 3.6
2017-Sep-21 05:01N 43°33' E 010°17'3 6.7
2017-Sep-21 04:30N 43°30' E 010°14'5 9.7
2017-Sep-21 04:00N 43°26' E 010°11'611.4
2017-Sep-21 03:30N 43°21' E 010°06'4 7.9
2017-Sep-21 03:00N 43°24' E 010°10'4 9.0
2017-Sep-21 02:30N 43°22' E 010°16'713.7
2017-Sep-21 02:01N 43°15' E 010°18'713.9
2017-Sep-21 01:30N 43°08' E 010°21'714.0
2017-Sep-21 00:59N 43°01' E 010°24'1213.3
2017-Sep-21 00:06N 42°51' E 010°31'30 0.7
2017-Sep-19 06:29N 43°10' E 009°59'612.4
2017-Sep-19 06:00N 43°14' E 009°53'611.8
2017-Sep-19 05:30N 43°18' E 009°47'611.7
2017-Sep-19 05:00N 43°22' E 009°41'611.8
2017-Sep-19 04:30N 43°26' E 009°35'611.8
2017-Sep-19 04:00N 43°30' E 009°30'611.8
2017-Sep-19 03:30N 43°35' E 009°24'611.7
2017-Sep-19 03:00N 43°39' E 009°19'611.5
2017-Sep-19 02:30N 43°43' E 009°13'611.3
2017-Sep-19 02:00N 43°47' E 009°07'611.1
2017-Sep-19 01:30N 43°51' E 009°02'611.2
2017-Sep-19 01:00N 43°55' E 008°57'611.2
2017-Sep-19 00:30N 43°59' E 008°51'611.2
2017-Sep-19 00:00N 44°03' E 008°46'611.1
2017-Sep-18 23:30N 44°07' E 008°41'611.5
2017-Sep-18 23:00N 44°11' E 008°35'611.8
2017-Sep-18 22:30N 44°15' E 008°29'1 2.5
2017-Sep-18 21:59N 44°16' E 008°27'0 0.0
2017-Sep-18 21:29N 44°16' E 008°27'0 0.0
2017-Sep-18 20:59N 44°16' E 008°27'0 0.0
2017-Sep-18 20:29N 44°16' E 008°27'0 0.0
2017-Sep-18 19:59N 44°16' E 008°27'0 0.0
2017-Sep-18 19:29N 44°16' E 008°27'0 0.0
2017-Sep-18 18:59N 44°16' E 008°27'0 0.0
2017-Sep-18 18:29N 44°16' E 008°27'0 0.0
2017-Sep-18 17:59N 44°16' E 008°27'0 0.0
2017-Sep-18 17:29N 44°16' E 008°27'0 0.0
2017-Sep-18 16:59N 44°16' E 008°27'0 0.0
2017-Sep-18 16:29N 44°16' E 008°27'0 0.0
2017-Sep-18 15:59N 44°16' E 008°27'0 0.0
2017-Sep-18 15:29N 44°16' E 008°27'0 0.0
2017-Sep-18 14:59N 44°16' E 008°27'0 0.0
2017-Sep-18 14:29N 44°16' E 008°27'0 0.0
2017-Sep-18 13:59N 44°16' E 008°27'0 0.0
2017-Sep-18 13:29N 44°16' E 008°27'0 0.0
2017-Sep-18 12:59N 44°16' E 008°27'0 0.0
2017-Sep-18 12:29N 44°16' E 008°27'0 0.0
2017-Sep-18 11:59N 44°16' E 008°27'0 0.0
2017-Sep-18 11:29N 44°16' E 008°27'0 0.0
2017-Sep-18 10:59N 44°16' E 008°27'0 0.0
2017-Sep-18 10:30N 44°16' E 008°27'0 0.0
2017-Sep-18 10:00N 44°16' E 008°27'0 0.0
2017-Sep-18 09:30N 44°16' E 008°27'0 0.0
2017-Sep-18 09:00N 44°16' E 008°27'0 0.0
2017-Sep-18 08:30N 44°16' E 008°27'0 0.0
2017-Sep-18 08:00N 44°16' E 008°27'0 0.0
2017-Sep-18 07:30N 44°16' E 008°27'0 0.0
2017-Sep-18 07:00N 44°16' E 008°27'0 0.0
2017-Sep-18 06:30N 44°16' E 008°27'0 0.0
2017-Sep-18 06:00N 44°16' E 008°27'0 0.0
2017-Sep-18 05:30N 44°16' E 008°27'0 0.0
2017-Sep-18 04:55N 44°16' E 008°27'0 1.1
2017-Sep-18 04:30N 44°16' E 008°27'2 3.5
2017-Sep-18 04:00N 44°15' E 008°29'3 5.6
2017-Sep-18 03:31N 44°13' E 008°30'5 9.3
2017-Sep-18 03:01N 44°08' E 008°28'5 9.6
2017-Sep-18 02:30N 44°04' E 008°25'510.1
2017-Sep-18 02:01N 43°59' E 008°23'610.1
2017-Sep-18 01:28N 43°54' E 008°20'910.0
2017-Sep-18 00:31N 43°46' E 008°14'1 8.4
2017-Sep-18 00:25N 43°45' E 008°15'4 8.3
2017-Sep-17 23:57N 43°44' E 008°20'4 8.0
2017-Sep-17 23:31N 43°43' E 008°24'6 8.3
2017-Sep-17 22:50N 43°48' E 008°27'3 9.0
2017-Sep-17 22:30N 43°51' E 008°28'4 8.5
2017-Sep-17 21:59N 43°54' E 008°31'4 8.5
2017-Sep-17 21:29N 43°58' E 008°35'4 8.3
2017-Sep-17 21:01N 44°01' E 008°38'4 8.4
2017-Sep-17 20:30N 44°04' E 008°42'1 2.8
2017-Sep-17 20:00N 44°05' E 008°44'1 2.0
2017-Sep-17 19:30N 44°05' E 008°42'1 1.9
2017-Sep-17 19:01N 44°05' E 008°41'1 1.9
2017-Sep-17 18:30N 44°04' E 008°40'1 1.8
2017-Sep-17 18:00N 44°04' E 008°39'1 1.8
2017-Sep-17 17:31N 44°03' E 008°38'1 1.8
2017-Sep-17 17:01N 44°03' E 008°37'1 2.0
2017-Sep-17 16:31N 44°03' E 008°35'1 2.0
2017-Sep-17 16:00N 44°02' E 008°34'1 1.9
2017-Sep-17 15:31N 44°02' E 008°33'1 1.9
2017-Sep-17 15:01N 44°02' E 008°31'1 1.8
2017-Sep-17 14:31N 44°01' E 008°30'1 1.8
2017-Sep-17 14:01N 44°01' E 008°29'1 1.8
2017-Sep-17 13:31N 44°01' E 008°28'1 1.9
2017-Sep-17 13:01N 44°00' E 008°27'1 1.9
2017-Sep-17 12:31N 44°00' E 008°25'1 2.6
2017-Sep-17 12:01N 43°59' E 008°24'5611.5
2017-Sep-17 07:09N 43°19' E 007°30'516.3
2017-Sep-17 06:50N 43°16' E 007°25'514.7
2017-Sep-17 06:30N 43°12' E 007°20'611.4
2017-Sep-17 06:00N 43°08' E 007°14'611.5
2017-Sep-17 05:30N 43°05' E 007°08'21711.3
2017-Sep-16 10:21N 40°40' E 003°31'410.2
2017-Sep-16 09:58N 40°38' E 003°27'4 9.6
2017-Sep-16 09:30N 40°34' E 003°23'5 9.2
2017-Sep-16 09:00N 40°31' E 003°18'5 9.4
2017-Sep-16 08:30N 40°28' E 003°14'5 9.6
2017-Sep-16 08:00N 40°25' E 003°09'5 9.6
2017-Sep-16 07:30N 40°22' E 003°04'5 9.6
2017-Sep-16 07:00N 40°19' E 002°60'510.2
2017-Sep-16 06:30N 40°15' E 002°55'714.7
2017-Sep-16 06:00N 40°10' E 002°48'712.8
2017-Sep-16 05:30N 40°06' E 002°41'510.7
2017-Sep-16 05:00N 40°02' E 002°36'510.7
2017-Sep-16 04:30N 39°59' E 002°31'510.7
2017-Sep-16 04:00N 39°55' E 002°26'510.9
2017-Sep-16 03:30N 39°52' E 002°20'611.2
2017-Sep-16 03:00N 39°48' E 002°15'611.5
2017-Sep-16 02:30N 39°44' E 002°09'611.5
2017-Sep-16 01:59N 39°40' E 002°03'511.2
2017-Sep-16 01:30N 39°37' E 001°58'611.0
2017-Sep-16 01:00N 39°33' E 001°53'611.1
2017-Sep-16 00:30N 39°30' E 001°47'510.8
2017-Sep-16 00:00N 39°26' E 001°42'510.7
2017-Sep-15 23:30N 39°22' E 001°37'610.6
2017-Sep-15 22:56N 39°18' E 001°32'510.2
2017-Sep-15 22:27N 39°15' E 001°27'910.0
2017-Sep-15 21:32N 39°09' E 001°18'2 9.6
2017-Sep-15 21:20N 39°08' E 001°16'6 9.4
2017-Sep-15 20:44N 39°04' E 001°11'10810.0
2017-Sep-15 10:01N 37°43' W 000°20'211.5
2017-Sep-15 09:51N 37°41' W 000°22'411.5
2017-Sep-15 09:28N 37°38' W 000°25'611.6
2017-Sep-15 08:57N 37°34' W 000°30'711.5
2017-Sep-15 08:22N 37°29' W 000°36'411.5
2017-Sep-15 08:00N 37°26' W 000°40'611.5
2017-Sep-15 07:30N 37°22' W 000°46'611.8
2017-Sep-15 07:00N 37°19' W 000°51'816.0
2017-Sep-15 06:29N 37°13' W 000°59'21311.6
2017-Sep-14 12:03N 36°01' W 005°09'112.7
2017-Sep-14 11:56N 36°01' W 005°11'613.2
2017-Sep-14 11:30N 36°02' W 005°18'612.0
2017-Sep-14 11:00N 36°06' W 005°23'4 0.9
2017-Sep-14 06:44N 36°08' W 005°26'0 0.0
2017-Sep-14 06:25N 36°08' W 005°26'0 0.0
2017-Sep-14 06:00N 36°08' W 005°26'0 0.0
2017-Sep-14 04:29N 36°08' W 005°26'0 0.0
2017-Sep-14 03:50N 36°08' W 005°26'0 0.0
2017-Sep-14 03:30N 36°08' W 005°26'0 0.0
2017-Sep-14 02:59N 36°08' W 005°26'0 0.0
2017-Sep-14 02:29N 36°08' W 005°26'0 0.0
2017-Sep-14 01:59N 36°08' W 005°26'0 0.0
2017-Sep-14 01:28N 36°08' W 005°26'0 0.0
2017-Sep-14 00:58N 36°08' W 005°26'0 0.0
2017-Sep-14 00:28N 36°08' W 005°26'0 0.0
2017-Sep-13 23:58N 36°08' W 005°26'0 0.0
2017-Sep-13 23:28N 36°08' W 005°26'0 0.0
2017-Sep-13 22:49N 36°08' W 005°26'0 0.0
2017-Sep-13 22:30N 36°08' W 005°26'0 0.0
2017-Sep-13 22:00N 36°08' W 005°26'0 0.0
2017-Sep-13 21:30N 36°08' W 005°26'0 0.0
2017-Sep-13 21:00N 36°08' W 005°26'0 0.0
2017-Sep-13 20:29N 36°08' W 005°26'0 0.0
2017-Sep-13 19:48N 36°08' W 005°26'0 0.0
2017-Sep-13 19:30N 36°08' W 005°26'0 0.1
2017-Sep-13 18:59N 36°08' W 005°26'0 0.1
2017-Sep-13 18:28N 36°08' W 005°26'0 0.0
2017-Sep-13 17:58N 36°08' W 005°26'0 0.2
2017-Sep-13 17:26N 36°08' W 005°26'2 3.4
2017-Sep-13 16:44N 36°07' W 005°23'0 0.6
2017-Sep-13 16:30N 36°07' W 005°23'4 7.4
2017-Sep-13 15:59N 36°04' W 005°21'511.0
2017-Sep-13 15:30N 36°05' W 005°15'2 0.4
2017-Sep-13 10:38N 36°06' W 005°12'212.7
2017-Sep-13 10:30N 36°05' W 005°14'612.2
2017-Sep-13 10:00N 36°04' W 005°21'1 0.6
2017-Sep-13 08:54N 36°04' W 005°20'4 9.6
2017-Sep-13 08:30N 36°04' W 005°15'3 2.3
2017-Sep-13 07:03N 36°07' W 005°13'212.9
2017-Sep-13 06:56N 36°06' W 005°14'3 6.9
2017-Sep-13 06:30N 36°05' W 005°11'24910.9
2017-Sep-12 07:38N 36°51' W 000°07'111.0
2017-Sep-12 07:30N 36°52' W 000°06'611.2
2017-Sep-12 07:00N 36°53' E 000°01'815.4
2017-Sep-12 06:30N 36°55' E 000°10'815.5
2017-Sep-12 06:00N 36°57' E 000°20'611.4
2017-Sep-12 05:31N 36°58' E 000°27'611.0
2017-Sep-12 05:00N 36°60' E 000°33'511.0
2017-Sep-12 04:30N 37°01' E 000°40'611.2
2017-Sep-12 04:00N 37°03' E 000°47'611.1
2017-Sep-12 03:30N 37°04' E 000°54'611.4
2017-Sep-12 03:00N 37°05' E 001°00'611.8
2017-Sep-12 02:30N 37°07' E 001°07'611.7
2017-Sep-12 02:01N 37°09' E 001°14'611.5
2017-Sep-12 01:30N 37°10' E 001°22'611.5
2017-Sep-12 01:01N 37°12' E 001°28'611.5
2017-Sep-12 00:30N 37°13' E 001°36'611.4
2017-Sep-12 00:00N 37°14' E 001°42'611.3
2017-Sep-11 23:30N 37°16' E 001°49'611.1
2017-Sep-11 23:00N 37°17' E 001°56'511.0
2017-Sep-11 22:30N 37°18' E 002°03'510.9
2017-Sep-11 22:01N 37°20' E 002°10'611.0
2017-Sep-11 21:30N 37°21' E 002°16'  

Dump ship's entire track history